Time;durP1;ratioP1;P1;durP2;ratioP2;P2;SDS_P1;SDS_P2;PMS_P1;PMS_P2;Temp;Humidity;BMP_temperature;BMP_pressure;BME280_temperature;BME280_humidity;BME280_pressure;Samples;Min_cycle;Max_cycle;Signal;HPM_P1;HPM_P2
2021/08/17 00:00:29;;;;;;;4.13;3.67;;;13.90;99.90;;;;;;4950391;28;20203;-54
2021/08/17 00:02:54;;;;;;;4.75;4.05;;;14.10;99.90;;;;;;4950903;28;20443;-54
2021/08/17 00:05:20;;;;;;;5.67;3.70;;;14.00;99.90;;;;;;4950900;28;20181;-54
2021/08/17 00:07:46;;;;;;;4.10;3.60;;;14.40;99.90;;;;;;4951601;28;20264;-53
2021/08/17 00:10:12;;;;;;;6.17;4.30;;;13.80;99.90;;;;;;4950755;28;20884;-53
2021/08/17 00:12:38;;;;;;;5.35;4.15;;;13.90;99.90;;;;;;4951085;28;20491;-53
2021/08/17 00:15:05;;;;;;;6.47;4.53;;;13.80;99.90;;;;;;4951270;28;20611;-54
2021/08/17 00:17:31;;;;;;;5.97;4.32;;;13.80;99.90;;;;;;4951032;28;20209;-53
2021/08/17 00:19:57;;;;;;;5.15;4.18;;;13.80;99.90;;;;;;4950713;28;20204;-54
2021/08/17 00:22:23;;;;;;;5.07;4.00;;;13.70;99.90;;;;;;4951265;28;20666;-53
2021/08/17 00:24:50;;;;;;;5.13;4.23;;;13.80;99.90;;;;;;4950659;28;20207;-53
2021/08/17 00:27:16;;;;;;;5.60;4.70;;;13.80;99.90;;;;;;4950689;28;20211;-54
2021/08/17 00:29:42;;;;;;;6.10;4.40;;;13.90;99.90;;;;;;4950088;28;20188;-54
2021/08/17 00:32:08;;;;;;;6.60;4.30;;;13.70;99.90;;;;;;4950423;28;20619;-54
2021/08/17 00:34:34;;;;;;;9.77;5.10;;;14.00;99.90;;;;;;4950531;28;20451;-53
2021/08/17 00:37:00;;;;;;;6.10;4.70;;;13.70;99.90;;;;;;4949550;28;20581;-53
2021/08/17 00:39:30;;;;;;;5.53;4.90;;;14.00;99.90;;;;;;4950379;28;20526;-53
2021/08/17 00:41:57;;;;;;;5.22;3.90;;;13.90;99.90;;;;;;4952523;28;20607;-53
2021/08/17 00:44:24;;;;;;;5.78;4.80;;;14.00;99.90;;;;;;4954885;28;20185;-53
2021/08/17 00:46:50;;;;;;;5.25;4.38;;;14.20;99.90;;;;;;4956449;28;20209;-53
2021/08/17 00:49:17;;;;;;;5.40;4.47;;;14.30;99.90;;;;;;4959473;28;20736;-53
2021/08/17 00:51:43;;;;;;;5.82;4.95;;;14.00;99.90;;;;;;4952951;28;21089;-52
2021/08/17 00:54:08;;;;;;;6.60;4.50;;;14.00;99.90;;;;;;4954480;28;20189;-53
2021/08/17 00:56:36;;;;;;;5.30;4.40;;;14.30;99.90;;;;;;4953748;28;21272;-53
2021/08/17 00:59:02;;;;;;;5.65;4.00;;;14.00;99.90;;;;;;4953708;28;20992;-53
2021/08/17 01:01:27;;;;;;;5.27;4.07;;;14.10;99.90;;;;;;4954331;28;20193;-53
2021/08/17 01:03:53;;;;;;;5.73;4.47;;;13.70;99.90;;;;;;4954459;28;20193;-53
2021/08/17 01:06:19;;;;;;;6.03;4.50;;;13.80;99.90;;;;;;4943022;28;20207;-54
2021/08/17 01:08:46;;;;;;;5.10;4.30;;;13.70;99.90;;;;;;4954367;28;20536;-54
2021/08/17 01:11:15;;;;;;;6.40;4.47;;;13.70;99.90;;;;;;4948748;28;20208;-54
2021/08/17 01:13:40;;;;;;;6.43;4.72;;;14.00;99.90;;;;;;4954142;28;20230;-54
2021/08/17 01:16:06;;;;;;;4.77;4.10;;;13.90;99.90;;;;;;4953970;28;20240;-53
2021/08/17 01:18:31;;;;;;;5.40;4.70;;;13.70;99.90;;;;;;4953341;28;20216;-54
2021/08/17 01:20:58;;;;;;;6.03;4.50;;;13.90;99.90;;;;;;4953148;28;20189;-55
2021/08/17 01:23:26;;;;;;;4.78;3.85;;;13.80;99.90;;;;;;4954259;28;20173;-54
2021/08/17 01:25:53;;;;;;;5.10;4.10;;;13.70;99.90;;;;;;4953367;28;20235;-54
2021/08/17 01:28:19;;;;;;;5.63;4.25;;;13.50;99.90;;;;;;4952850;28;20196;-52
2021/08/17 01:30:44;;;;;;;6.75;4.25;;;13.50;99.90;;;;;;4953864;28;20185;-54
2021/08/17 01:33:13;;;;;;;5.40;4.03;;;13.50;99.90;;;;;;4954189;28;20193;-53
2021/08/17 01:35:39;;;;;;;6.70;4.68;;;13.20;99.90;;;;;;4953975;28;20197;-54
2021/08/17 01:38:05;;;;;;;8.23;4.70;;;13.40;99.90;;;;;;4945728;28;20218;-53
2021/08/17 01:40:31;;;;;;;6.15;3.92;;;13.50;99.90;;;;;;4947733;28;20185;-53
2021/08/17 01:42:57;;;;;;;4.30;3.90;;;13.40;99.90;;;;;;4952509;29;20283;-54
2021/08/17 01:45:22;;;;;;;5.23;4.00;;;13.20;99.90;;;;;;4953549;28;20949;-53
2021/08/17 01:47:54;;;;;;;6.07;4.37;;;13.00;99.90;;;;;;4953375;28;20271;-52
2021/08/17 01:50:20;;;;;;;6.97;3.90;;;13.10;99.90;;;;;;4951467;28;20189;-53
2021/08/17 01:52:46;;;;;;;6.88;4.63;;;13.30;99.90;;;;;;4950950;28;20193;-54
2021/08/17 01:55:13;;;;;;;7.07;3.93;;;13.20;99.90;;;;;;4949998;29;20208;-54
2021/08/17 01:57:40;;;;;;;5.25;4.68;;;13.20;99.90;;;;;;4948796;29;20208;-54
2021/08/17 02:00:07;;;;;;;8.52;4.40;;;13.40;99.90;;;;;;4952171;28;20223;-55
2021/08/17 02:02:33;;;;;;;6.60;4.45;;;13.40;99.90;;;;;;4952341;28;20226;-55
2021/08/17 02:04:58;;;;;;;5.43;4.50;;;13.00;99.90;;;;;;4952601;28;20221;-54
2021/08/17 02:07:24;;;;;;;4.77;4.17;;;13.30;99.90;;;;;;4953116;28;20628;-54
2021/08/17 02:09:50;;;;;;;9.53;4.90;;;13.10;99.90;;;;;;4952339;28;20824;-55
2021/08/17 02:12:15;;;;;;;8.40;4.73;;;13.00;99.90;;;;;;4950011;28;20870;-55
2021/08/17 02:14:41;;;;;;;5.10;4.13;;;13.10;99.90;;;;;;4953307;28;20179;-55
2021/08/17 02:17:07;;;;;;;6.50;5.20;;;13.10;99.90;;;;;;4952705;28;20212;-54
2021/08/17 02:19:32;;;;;;;6.30;4.23;;;13.00;99.90;;;;;;4952220;28;20204;-56
2021/08/17 02:21:58;;;;;;;7.03;3.90;;;13.00;99.90;;;;;;4951853;28;20440;-54
2021/08/17 02:24:24;;;;;;;5.30;3.77;;;13.00;99.90;;;;;;4952868;28;20402;-55
2021/08/17 02:26:49;;;;;;;4.67;3.27;;;13.30;99.90;;;;;;4951132;28;20517;-54
2021/08/17 02:29:15;;;;;;;7.03;3.93;;;13.10;99.90;;;;;;4952594;28;20681;-55
2021/08/17 02:31:41;;;;;;;6.00;4.30;;;13.00;99.90;;;;;;4952676;28;20214;-54
2021/08/17 02:34:06;;;;;;;6.77;3.90;;;12.90;99.90;;;;;;4952106;28;20330;-53
2021/08/17 02:36:32;;;;;;;6.60;4.10;;;12.80;99.90;;;;;;4947667;28;20706;-55
2021/08/17 02:38:58;;;;;;;4.53;3.83;;;12.80;99.90;;;;;;4951607;28;20323;-55
2021/08/17 02:41:23;;;;;;;5.30;3.77;;;12.90;99.90;;;;;;4951409;28;20195;-55
2021/08/17 02:43:49;;;;;;;6.77;4.23;;;12.80;99.90;;;;;;4952467;28;20676;-54
2021/08/17 02:46:15;;;;;;;5.17;4.20;;;12.80;99.90;;;;;;4952741;28;20203;-55
2021/08/17 02:48:40;;;;;;;4.83;4.30;;;12.70;99.90;;;;;;4954033;28;20187;-55
2021/08/17 02:51:06;;;;;;;6.80;4.17;;;12.50;99.90;;;;;;4952095;28;20191;-55
2021/08/17 02:53:32;;;;;;;5.27;4.27;;;12.80;99.90;;;;;;4951640;28;20199;-55
2021/08/17 02:55:57;;;;;;;5.37;4.30;;;12.60;99.90;;;;;;4951447;28;20616;-54
2021/08/17 02:58:23;;;;;;;5.10;3.77;;;12.50;99.90;;;;;;4952011;28;20227;-54
2021/08/17 03:00:49;;;;;;;6.50;4.90;;;12.60;99.90;;;;;;4951765;28;20188;-54
2021/08/17 03:03:14;;;;;;;6.60;4.13;;;12.30;99.90;;;;;;4951889;28;20247;-55
2021/08/17 03:05:40;;;;;;;7.53;4.80;;;12.40;99.90;;;;;;4951728;28;20216;-53
2021/08/17 03:08:06;;;;;;;4.63;3.90;;;12.30;99.90;;;;;;4952021;28;20656;-55
2021/08/17 03:10:35;;;;;;;7.40;4.73;;;12.40;99.90;;;;;;4951395;28;20224;-55
2021/08/17 03:13:01;;;;;;;5.28;4.10;;;12.30;99.90;;;;;;4952327;28;20972;-55
2021/08/17 03:15:33;;;;;;;5.32;4.50;;;12.40;99.90;;;;;;4952125;28;20183;-55
2021/08/17 03:18:06;;;;;;;6.70;4.15;;;12.30;99.90;;;;;;4947330;28;20250;-54
2021/08/17 03:20:33;;;;;;;9.00;5.30;;;12.20;99.90;;;;;;4951612;29;20180;-55
2021/08/17 03:22:59;;;;;;;5.53;4.50;;;12.40;99.90;;;;;;4951761;28;20199;-55
2021/08/17 03:25:28;;;;;;;5.40;4.13;;;12.40;99.90;;;;;;4951084;28;20198;-55
2021/08/17 03:27:55;;;;;;;6.50;4.50;;;12.10;99.90;;;;;;4951450;28;20326;-55
2021/08/17 03:30:22;;;;;;;6.63;4.68;;;12.00;99.90;;;;;;4951486;28;20215;-55
2021/08/17 03:32:48;;;;;;;7.35;4.63;;;12.00;99.90;;;;;;4951966;28;20193;-55
2021/08/17 03:35:14;;;;;;;8.03;5.20;;;12.30;99.90;;;;;;4950841;28;20203;-54
2021/08/17 03:37:40;;;;;;;6.50;4.38;;;12.20;99.90;;;;;;4951473;28;20223;-55
2021/08/17 03:40:10;;;;;;;7.35;4.57;;;12.20;99.90;;;;;;4948638;28;20388;-54
2021/08/17 03:42:37;;;;;;;4.85;3.85;;;12.10;99.90;;;;;;4946644;28;20202;-55
2021/08/17 03:45:03;;;;;;;6.05;4.20;;;11.80;99.90;;;;;;4950749;28;20187;-53
2021/08/17 03:47:29;;;;;;;5.65;4.55;;;12.20;99.90;;;;;;4954221;28;20200;-54
2021/08/17 03:49:55;;;;;;;6.10;4.20;;;12.00;99.90;;;;;;4950321;28;20185;-54
2021/08/17 03:52:20;;;;;;;6.67;4.03;;;12.00;99.90;;;;;;4951589;28;20192;-55
2021/08/17 03:54:46;;;;;;;6.00;3.50;;;12.00;99.90;;;;;;4950815;28;20295;-55
2021/08/17 03:57:12;;;;;;;5.87;4.43;;;12.00;99.90;;;;;;4951156;28;20586;-55
2021/08/17 03:59:38;;;;;;;3.83;3.17;;;12.00;99.90;;;;;;4950045;29;20222;-55
2021/08/17 04:02:03;;;;;;;5.80;4.07;;;12.10;99.90;;;;;;4950377;28;20242;-54
2021/08/17 04:04:29;;;;;;;7.10;4.40;;;12.00;99.90;;;;;;4946250;29;20915;-54
2021/08/17 04:06:55;;;;;;;5.57;3.77;;;11.90;99.90;;;;;;4945508;28;20290;-53
2021/08/17 04:09:20;;;;;;;6.43;3.83;;;11.90;99.90;;;;;;4950623;29;20695;-54
2021/08/17 04:11:46;;;;;;;5.70;4.60;;;12.10;99.90;;;;;;4950944;28;21043;-54
2021/08/17 04:14:11;;;;;;;8.47;4.67;;;12.00;99.90;;;;;;4951503;28;20202;-54
2021/08/17 04:16:37;;;;;;;4.77;3.60;;;11.90;99.90;;;;;;4952995;28;20218;-55
2021/08/17 04:19:03;;;;;;;6.77;3.90;;;11.90;99.90;;;;;;4954822;28;20229;-60
2021/08/17 04:21:29;;;;;;;5.20;3.87;;;11.80;99.90;;;;;;4955572;28;20186;-57
2021/08/17 04:23:56;;;;;;;4.88;3.97;;;11.60;99.90;;;;;;4964722;28;20687;-59
2021/08/17 04:26:23;;;;;;;4.53;4.00;;;11.70;99.90;;;;;;4952928;28;20308;-58
2021/08/17 04:28:48;;;;;;;7.78;4.93;;;11.80;99.90;;;;;;4954683;28;20196;-58
2021/08/17 04:31:14;;;;;;;7.40;4.53;;;11.50;99.90;;;;;;4953268;28;20196;-57
2021/08/17 04:33:40;;;;;;;6.83;4.93;;;11.60;99.90;;;;;;4966789;28;20291;-57
2021/08/17 04:36:05;;;;;;;8.60;4.90;;;11.60;99.90;;;;;;4954357;28;20725;-54
2021/08/17 04:38:31;;;;;;;4.87;4.37;;;11.50;99.90;;;;;;4954864;28;20221;-54
2021/08/17 04:40:56;;;;;;;5.67;4.30;;;11.60;99.90;;;;;;4954213;28;20262;-55
2021/08/17 04:43:22;;;;;;;7.07;4.10;;;11.70;99.90;;;;;;4955234;28;20195;-54
2021/08/17 04:45:49;;;;;;;7.80;5.20;;;11.90;99.90;;;;;;4954583;28;20286;-53
2021/08/17 04:48:15;;;;;;;8.02;4.00;;;12.00;99.90;;;;;;4952824;28;20193;-55
2021/08/17 04:50:41;;;;;;;6.67;4.60;;;11.70;99.90;;;;;;4955453;28;20238;-55
2021/08/17 04:53:06;;;;;;;5.83;5.10;;;12.00;99.90;;;;;;4955233;28;20272;-55
2021/08/17 04:55:32;;;;;;;5.50;4.17;;;12.00;99.90;;;;;;4953116;28;20218;-55
2021/08/17 04:57:59;;;;;;;5.93;4.10;;;12.20;99.90;;;;;;4960871;28;20209;-57
2021/08/17 05:00:27;;;;;;;6.35;4.53;;;11.70;99.90;;;;;;4955807;28;20183;-55
2021/08/17 05:02:54;;;;;;;5.10;4.30;;;11.60;99.90;;;;;;4954201;28;20181;-54
2021/08/17 05:05:20;;;;;;;5.97;4.65;;;11.80;99.90;;;;;;4961741;28;20210;-55
2021/08/17 05:07:46;;;;;;;5.00;3.80;;;11.90;99.90;;;;;;4962894;28;20188;-54
2021/08/17 05:10:18;;;;;;;4.60;3.60;;;12.00;99.90;;;;;;4954072;28;20730;-53
2021/08/17 05:12:44;;;;;;;8.02;4.45;;;11.80;99.90;;;;;;4953405;28;20189;-55
2021/08/17 05:15:11;;;;;;;4.70;3.92;;;12.00;99.90;;;;;;4953719;28;20221;-55
2021/08/17 05:17:37;;;;;;;4.97;3.58;;;11.90;99.90;;;;;;4954612;28;20265;-54
2021/08/17 05:20:07;;;;;;;8.20;4.93;;;11.80;99.90;;;;;;4953081;28;20228;-53
2021/08/17 05:22:33;;;;;;;7.82;4.80;;;11.90;99.90;;;;;;4953252;28;20507;-54
2021/08/17 05:24:59;;;;;;;7.40;4.33;;;12.00;99.90;;;;;;4953170;28;20173;-54
2021/08/17 05:27:25;;;;;;;5.50;4.07;;;11.90;99.90;;;;;;4953101;28;20305;-55
2021/08/17 05:29:52;;;;;;;5.10;4.40;;;12.10;99.90;;;;;;4953838;28;20556;-54
2021/08/17 05:32:19;;;;;;;5.55;3.80;;;12.00;99.90;;;;;;4953688;28;20943;-54
2021/08/17 05:34:46;;;;;;;5.28;4.18;;;12.00;99.90;;;;;;4952807;28;20602;-55
2021/08/17 05:37:14;;;;;;;5.85;3.97;;;12.30;99.90;;;;;;4952508;28;20627;-54
2021/08/17 05:39:41;;;;;;;6.32;4.80;;;12.40;99.90;;;;;;4953445;28;20295;-55
2021/08/17 05:42:07;;;;;;;7.82;4.70;;;12.40;99.90;;;;;;4947824;28;20204;-55
2021/08/17 05:44:32;;;;;;;6.50;4.43;;;12.30;99.90;;;;;;4952863;28;20550;-53
2021/08/17 05:46:58;;;;;;;6.93;4.67;;;12.60;99.90;;;;;;4952217;28;20214;-54
2021/08/17 05:49:23;;;;;;;6.00;5.03;;;12.80;99.90;;;;;;4956130;28;20195;-54
2021/08/17 05:51:49;;;;;;;6.60;4.30;;;12.70;99.90;;;;;;4952476;28;20192;-54
2021/08/17 05:54:16;;;;;;;8.70;5.60;;;12.60;99.90;;;;;;4953341;28;20200;-51
2021/08/17 05:56:41;;;;;;;6.30;4.32;;;12.80;99.90;;;;;;4951745;28;20303;-53
2021/08/17 05:59:07;;;;;;;6.20;4.10;;;13.00;99.90;;;;;;4953008;28;20646;-53
2021/08/17 06:01:33;;;;;;;12.70;7.57;;;13.00;99.90;;;;;;4953052;28;20200;-53
2021/08/17 06:03:58;;;;;;;4.80;4.20;;;13.10;99.90;;;;;;4946802;28;20263;-53
2021/08/17 06:06:24;;;;;;;6.20;4.10;;;13.20;99.90;;;;;;4953105;28;20203;-52
2021/08/17 06:08:51;;;;;;;6.07;4.07;;;13.20;99.90;;;;;;4951121;28;20577;-53
2021/08/17 06:11:16;;;;;;;5.95;4.50;;;13.60;99.90;;;;;;4956135;28;20181;-53
2021/08/17 06:13:42;;;;;;;5.37;4.13;;;13.70;99.90;;;;;;4957262;28;20181;-53
2021/08/17 06:16:08;;;;;;;5.43;4.00;;;13.80;99.90;;;;;;4957478;28;20208;-55
2021/08/17 06:18:33;;;;;;;5.23;4.67;;;13.50;99.90;;;;;;4952209;28;20205;-55
2021/08/17 06:20:59;;;;;;;5.40;4.50;;;14.30;99.90;;;;;;4951653;28;20631;-54
2021/08/17 06:23:25;;;;;;;4.97;4.43;;;14.30;99.90;;;;;;4952506;28;20642;-54
2021/08/17 06:25:50;;;;;;;6.33;4.53;;;14.50;99.90;;;;;;4951781;28;20690;-55
2021/08/17 06:28:16;;;;;;;5.77;4.17;;;14.80;99.90;;;;;;4950958;29;20203;-54
2021/08/17 06:30:42;;;;;;;8.73;5.07;;;14.80;99.90;;;;;;4952721;28;20553;-54
2021/08/17 06:33:08;;;;;;;7.23;4.33;;;14.70;99.90;;;;;;4952073;29;20238;-54
2021/08/17 06:35:33;;;;;;;6.68;4.63;;;15.20;99.90;;;;;;4952242;28;20200;-53
2021/08/17 06:37:59;;;;;;;6.30;4.20;;;15.20;99.90;;;;;;4952218;28;20213;-52
2021/08/17 06:40:26;;;;;;;4.50;4.00;;;15.30;99.90;;;;;;4946474;28;20652;-54
2021/08/17 06:42:52;;;;;;;5.78;4.60;;;15.50;99.90;;;;;;4945926;29;20204;-52
2021/08/17 06:45:18;;;;;;;6.90;4.20;;;15.70;99.90;;;;;;4951432;28;20192;-53
2021/08/17 06:47:53;;;;;;;5.60;3.97;;;15.80;99.90;;;;;;4953405;28;20180;-52
2021/08/17 06:50:19;;;;;;;6.03;4.43;;;15.70;99.90;;;;;;4951717;29;20821;-55
2021/08/17 06:52:45;;;;;;;6.80;4.20;;;15.80;99.90;;;;;;4951701;28;20266;-54
2021/08/17 06:55:12;;;;;;;4.68;3.90;;;15.80;99.90;;;;;;4949527;28;20264;-53
2021/08/17 06:57:38;;;;;;;5.43;4.88;;;16.00;99.90;;;;;;4946967;29;20545;-53
2021/08/17 07:00:07;;;;;;;5.00;4.22;;;16.10;99.90;;;;;;4951157;28;20184;-55
2021/08/17 07:02:33;;;;;;;5.25;4.68;;;16.10;99.90;;;;;;4952608;28;20183;-54
2021/08/17 07:04:58;;;;;;;5.45;4.47;;;16.10;99.90;;;;;;4951348;28;20181;-55
2021/08/17 07:07:24;;;;;;;6.80;4.83;;;16.00;99.90;;;;;;4951060;28;20223;-54
2021/08/17 07:09:50;;;;;;;5.23;3.80;;;16.20;99.90;;;;;;4947732;28;20282;-55
2021/08/17 07:12:16;;;;;;;5.40;4.47;;;16.20;99.90;;;;;;4952038;28;20790;-55
2021/08/17 07:14:41;;;;;;;4.33;3.93;;;17.40;99.90;;;;;;4947741;28;20539;-56
2021/08/17 07:17:07;;;;;;;4.30;3.90;;;18.90;97.90;;;;;;4950630;28;20208;-57
2021/08/17 07:19:33;;;;;;;5.83;4.10;;;21.10;94.10;;;;;;4951946;28;20639;-55
2021/08/17 07:21:58;;;;;;;6.20;4.03;;;23.00;87.70;;;;;;4951430;28;20195;-55
2021/08/17 07:24:24;;;;;;;5.43;4.40;;;23.70;82.40;;;;;;4948220;28;20188;-54
2021/08/17 07:26:50;;;;;;;4.33;3.93;;;24.50;78.90;;;;;;4951090;28;20212;-55
2021/08/17 07:29:16;;;;;;;3.80;3.40;;;26.10;74.80;;;;;;4948267;28;20453;-57
2021/08/17 07:31:42;;;;;;;5.77;4.10;;;26.70;67.60;;;;;;4949896;28;20471;-55
2021/08/17 07:34:08;;;;;;;4.07;3.50;;;27.90;63.90;;;;;;4949294;28;20774;-55
2021/08/17 07:36:36;;;;;;;5.23;4.73;;;27.30;63.40;;;;;;4950315;28;20299;-56
2021/08/17 07:39:03;;;;;;;4.30;3.90;;;28.00;60.80;;;;;;4945454;29;20220;-56
2021/08/17 07:41:29;;;;;;;4.67;4.27;;;28.20;57.30;;;;;;4943847;28;20500;-58
2021/08/17 07:43:54;;;;;;;5.70;3.90;;;29.00;56.00;;;;;;4951854;29;20551;-58
2021/08/17 07:46:20;;;;;;;4.70;3.83;;;28.50;55.70;;;;;;4950965;28;20204;-56
2021/08/17 07:48:46;;;;;;;4.57;4.17;;;28.90;56.00;;;;;;4953770;28;20203;-55
2021/08/17 07:51:12;;;;;;;4.83;4.33;;;28.60;56.00;;;;;;4953178;28;20458;-53
2021/08/17 07:53:37;;;;;;;10.57;9.67;;;29.50;54.50;;;;;;4960410;28;20675;-55
2021/08/17 07:56:04;;;;;;;6.50;5.10;;;30.10;51.50;;;;;;4950265;28;20242;-56
2021/08/17 07:58:29;;;;;;;4.53;3.93;;;28.90;52.80;;;;;;4952886;28;20228;-56
2021/08/17 08:00:55;;;;;;;4.70;4.30;;;28.10;55.00;;;;;;4954604;28;20470;-54
2021/08/17 08:03:21;;;;;;;6.23;5.00;;;28.10;54.50;;;;;;4955344;28;20190;-56
2021/08/17 08:05:46;;;;;;;4.73;4.23;;;27.20;55.30;;;;;;4953469;28;20337;-56
2021/08/17 08:08:12;;;;;;;5.50;4.07;;;28.00;54.10;;;;;;4955080;28;20283;-53
2021/08/17 08:10:38;;;;;;;5.27;3.90;;;27.90;53.80;;;;;;4953670;28;20204;-54
2021/08/17 08:13:03;;;;;;;4.93;4.53;;;27.80;53.60;;;;;;4954991;28;20207;-55
2021/08/17 08:15:29;;;;;;;5.53;4.70;;;27.80;54.80;;;;;;4954361;28;20194;-54
2021/08/17 08:17:55;;;;;;;4.63;4.20;;;26.90;54.80;;;;;;4953365;28;20299;-53
2021/08/17 08:20:21;;;;;;;6.47;5.03;;;25.60;57.30;;;;;;4951050;28;20204;-54
2021/08/17 08:22:48;;;;;;;4.60;4.20;;;25.70;58.10;;;;;;4954678;28;20189;-54
2021/08/17 08:25:14;;;;;;;4.83;4.43;;;26.30;56.50;;;;;;4949389;29;20545;-54
2021/08/17 08:27:40;;;;;;;4.80;4.20;;;26.60;55.40;;;;;;4955085;28;20552;-55
2021/08/17 08:30:06;;;;;;;4.60;4.20;;;26.00;55.10;;;;;;4954755;28;20669;-55
2021/08/17 08:32:33;;;;;;;5.30;4.80;;;26.00;56.60;;;;;;4954533;28;20666;-54
2021/08/17 08:34:58;;;;;;;6.30;4.40;;;25.40;57.50;;;;;;4953953;28;20448;-53
2021/08/17 08:37:24;;;;;;;4.50;4.10;;;25.00;59.30;;;;;;4954034;28;20975;-56
2021/08/17 08:39:50;;;;;;;8.57;5.67;;;25.30;58.30;;;;;;4953187;28;20226;-54
2021/08/17 08:42:15;;;;;;;6.70;5.10;;;24.30;58.80;;;;;;4953505;28;20208;-54
2021/08/17 08:44:41;;;;;;;5.50;4.67;;;23.60;59.80;;;;;;4954176;28;20649;-55
2021/08/17 08:47:07;;;;;;;6.47;5.27;;;23.30;60.40;;;;;;4957595;28;20200;-55
2021/08/17 08:49:33;;;;;;;5.20;4.70;;;22.90;62.30;;;;;;4947276;28;20185;-56
2021/08/17 08:52:00;;;;;;;5.53;4.97;;;22.20;63.50;;;;;;4954586;28;20464;-54
2021/08/17 08:54:26;;;;;;;6.23;5.17;;;22.00;65.30;;;;;;4954356;28;20457;-52
2021/08/17 08:56:52;;;;;;;8.47;7.77;;;21.70;65.40;;;;;;4953993;28;20480;-55
2021/08/17 08:59:18;;;;;;;5.40;4.77;;;21.50;67.50;;;;;;4949438;28;20640;-55
2021/08/17 09:01:49;;;;;;;6.57;5.37;;;21.40;67.80;;;;;;4949143;28;20189;-52
2021/08/17 09:04:15;;;;;;;5.20;4.70;;;21.70;66.50;;;;;;4953314;28;20687;-55
2021/08/17 09:06:52;;;;;;;6.50;4.50;;;22.20;66.20;;;;;;4953564;28;20612;-55
2021/08/17 09:09:18;;;;;;;6.20;4.60;;;22.90;65.70;;;;;;4954520;29;20440;-55
2021/08/17 09:11:47;;;;;;;5.10;4.50;;;23.50;61.00;;;;;;4947664;28;20437;-53
2021/08/17 09:14:17;;;;;;;5.37;4.40;;;24.10;59.10;;;;;;4954165;29;20782;-56
2021/08/17 09:16:43;;;;;;;6.03;4.03;;;25.40;57.50;;;;;;4953858;28;20543;-56
2021/08/17 09:19:38;;;;;;;4.23;3.83;;;26.20;54.90;;;;;;4953866;29;20563;-57
2021/08/17 09:22:23;;;;;;;5.47;4.40;;;27.00;51.70;;;;;;4952916;29;20193;-55
2021/08/17 09:24:56;;;;;;;5.70;5.10;;;27.20;50.60;;;;;;4953934;28;20496;-54
2021/08/17 09:27:31;;;;;;;5.03;4.60;;;27.00;50.90;;;;;;4952740;29;20464;-54
2021/08/17 09:30:16;;;;;;;5.07;4.67;;;26.50;51.90;;;;;;4950677;29;20906;-54
2021/08/17 09:32:55;;;;;;;5.70;4.77;;;26.50;53.20;;;;;;4952676;29;20442;-55
2021/08/17 09:35:22;;;;;;;4.50;4.10;;;26.10;54.00;;;;;;4953149;28;20436;-56
2021/08/17 09:38:07;;;;;;;4.83;4.33;;;25.00;53.70;;;;;;4954249;28;20470;-56
2021/08/17 09:40:34;;;;;;;5.37;4.37;;;24.20;55.00;;;;;;4952493;28;20947;-53
2021/08/17 09:43:20;;;;;;;6.90;4.77;;;23.30;56.10;;;;;;4952890;28;20962;-57
2021/08/17 09:45:47;;;;;;;4.50;4.03;;;23.00;56.80;;;;;;4953704;28;20452;-53
2021/08/17 09:48:14;;;;;;;6.90;4.80;;;22.90;57.80;;;;;;4957538;28;20917;-56
2021/08/17 09:50:42;;;;;;;4.10;3.70;;;22.60;58.90;;;;;;4952894;28;20492;-55
2021/08/17 09:53:15;;;;;;;4.20;3.80;;;22.10;56.50;;;;;;4953088;28;20436;-54
2021/08/17 09:55:55;;;;;;;4.60;3.93;;;22.10;57.10;;;;;;4953033;28;20471;-55
2021/08/17 09:58:35;;;;;;;5.60;4.05;;;22.20;58.90;;;;;;4951817;29;21024;-55
2021/08/17 10:01:03;;;;;;;4.72;3.72;;;21.70;57.70;;;;;;4952426;29;20185;-54
2021/08/17 10:03:30;;;;;;;7.43;4.95;;;21.50;58.10;;;;;;4953289;28;20276;-55
2021/08/17 10:05:56;;;;;;;5.57;4.78;;;21.60;59.50;;;;;;4952264;28;20244;-55
2021/08/17 10:08:25;;;;;;;5.05;4.40;;;21.60;60.00;;;;;;4952679;28;20192;-55
2021/08/17 10:10:53;;;;;;;4.55;4.05;;;21.70;61.60;;;;;;4952618;28;20611;-53
2021/08/17 10:13:21;;;;;;;7.30;4.38;;;21.50;59.40;;;;;;4952411;28;20189;-53
2021/08/17 10:15:49;;;;;;;5.45;3.70;;;21.10;58.90;;;;;;4950067;29;20764;-55
2021/08/17 10:18:23;;;;;;;6.13;4.80;;;20.70;60.80;;;;;;4952158;29;20267;-53
2021/08/17 10:20:52;;;;;;;5.88;3.78;;;20.50;61.60;;;;;;4946898;29;20188;-54
2021/08/17 10:23:22;;;;;;;4.03;3.53;;;20.50;63.10;;;;;;4952721;28;20188;-54
2021/08/17 10:25:50;;;;;;;4.40;3.90;;;20.50;61.30;;;;;;4952384;28;20197;-57
2021/08/17 10:28:30;;;;;;;6.20;4.00;;;20.50;62.00;;;;;;4951617;28;20193;-58
2021/08/17 10:30:57;;;;;;;4.38;3.67;;;20.20;64.10;;;;;;4945439;29;20192;-55
2021/08/17 10:33:46;;;;;;;4.50;3.55;;;20.10;64.30;;;;;;4951907;28;20193;-53
2021/08/17 10:36:35;;;;;;;5.07;3.80;;;20.30;64.70;;;;;;4949417;29;20217;-53
2021/08/17 10:39:17;;;;;;;4.28;3.65;;;20.20;64.30;;;;;;4952023;29;20222;-53
2021/08/17 10:41:44;;;;;;;6.70;4.90;;;20.50;63.40;;;;;;4951952;28;20266;-54
2021/08/17 10:44:12;;;;;;;5.47;4.15;;;20.20;64.70;;;;;;4952446;28;20275;-55
2021/08/17 10:46:44;;;;;;;4.82;3.78;;;20.50;63.80;;;;;;4945366;28;20197;-54
2021/08/17 10:49:26;;;;;;;5.50;3.95;;;20.50;63.50;;;;;;4953336;28;20351;-53
2021/08/17 10:51:54;;;;;;;4.20;3.80;;;20.70;64.40;;;;;;4952227;29;20279;-54
2021/08/17 10:54:19;;;;;;;5.20;4.35;;;20.80;62.50;;;;;;4952142;28;20185;-54
2021/08/17 10:56:50;;;;;;;4.60;4.03;;;20.80;64.20;;;;;;4951620;28;20267;-55
2021/08/17 10:59:38;;;;;;;4.15;3.75;;;21.00;64.00;;;;;;4948362;29;20666;-53
2021/08/17 11:02:05;;;;;;;4.90;3.65;;;21.10;65.40;;;;;;4950053;28;20200;-54
2021/08/17 11:04:37;;;;;;;3.58;3.28;;;21.20;60.70;;;;;;4949961;28;20189;-55
2021/08/17 11:07:22;;;;;;;4.50;3.83;;;20.70;59.70;;;;;;4948272;29;20263;-54
2021/08/17 11:09:48;;;;;;;4.15;3.72;;;20.90;62.80;;;;;;4951156;28;20678;-54
2021/08/17 11:12:14;;;;;;;3.70;3.40;;;21.10;60.50;;;;;;4947407;28;20194;-55
2021/08/17 11:14:44;;;;;;;3.90;2.73;;;21.10;57.00;;;;;;4951426;28;20200;-54
2021/08/17 11:17:12;;;;;;;3.53;3.22;;;21.20;57.00;;;;;;4951684;28;20272;-54
2021/08/17 11:19:45;;;;;;;3.53;2.85;;;21.40;57.40;;;;;;4950636;28;20212;-53
2021/08/17 11:22:19;;;;;;;3.85;3.53;;;21.30;57.80;;;;;;4951587;29;20673;-52
2021/08/17 11:24:52;;;;;;;3.78;3.15;;;21.40;56.70;;;;;;4950560;28;20301;-53
2021/08/17 11:27:35;;;;;;;7.07;6.05;;;21.10;57.50;;;;;;4951894;28;20694;-54
2021/08/17 11:30:08;;;;;;;4.30;3.80;;;21.20;59.20;;;;;;4951680;29;20284;-55
2021/08/17 11:32:44;;;;;;;3.72;2.97;;;21.10;58.90;;;;;;4949245;29;20194;-55
2021/08/17 11:35:12;;;;;;;3.53;3.22;;;21.20;58.70;;;;;;4951216;29;20188;-52
2021/08/17 11:37:50;;;;;;;3.40;3.10;;;20.90;58.50;;;;;;4951505;28;20663;-54
2021/08/17 11:40:18;;;;;;;3.53;2.63;;;21.00;58.20;;;;;;4939776;29;20185;-55
2021/08/17 11:42:46;;;;;;;4.07;3.58;;;21.00;58.70;;;;;;4951406;28;20300;-54
2021/08/17 11:45:24;;;;;;;2.90;2.60;;;21.10;58.80;;;;;;4951742;28;20185;-53
2021/08/17 11:47:51;;;;;;;2.88;2.67;;;21.30;58.20;;;;;;4949810;28;20187;-52
2021/08/17 11:50:21;;;;;;;2.70;2.50;;;21.30;57.10;;;;;;4948363;28;20189;-55
2021/08/17 11:52:55;;;;;;;3.38;2.30;;;21.30;57.50;;;;;;4950961;28;20189;-54
2021/08/17 11:55:22;;;;;;;4.23;3.23;;;21.50;56.00;;;;;;4950326;28;20685;-54
2021/08/17 11:57:59;;;;;;;3.20;2.90;;;21.80;54.90;;;;;;4950669;28;20448;-55
2021/08/17 12:00:27;;;;;;;3.00;2.20;;;22.10;53.60;;;;;;4945973;29;20432;-54
2021/08/17 12:02:55;;;;;;;3.00;2.70;;;22.20;53.00;;;;;;4950023;28;20837;-55
2021/08/17 12:05:22;;;;;;;3.42;3.13;;;22.40;54.20;;;;;;4950437;28;20946;-53
2021/08/17 12:07:50;;;;;;;3.43;3.13;;;22.60;55.10;;;;;;4951241;28;20207;-55
2021/08/17 12:10:20;;;;;;;4.10;2.90;;;22.70;54.70;;;;;;4949433;28;20440;-55
2021/08/17 12:12:58;;;;;;;3.17;2.65;;;22.60;53.90;;;;;;4951396;28;20839;-57
2021/08/17 12:15:48;;;;;;;4.40;3.60;;;22.60;54.90;;;;;;4951158;28;20188;-54
2021/08/17 12:18:16;;;;;;;3.10;2.80;;;22.60;54.00;;;;;;4942678;28;20570;-55
2021/08/17 12:21:00;;;;;;;4.93;3.08;;;22.50;55.10;;;;;;4956516;28;20643;-53
2021/08/17 12:23:39;;;;;;;4.10;3.70;;;22.30;53.60;;;;;;4951155;28;20246;-53
2021/08/17 12:26:28;;;;;;;3.20;2.90;;;22.00;55.30;;;;;;4948601;28;20227;-54
2021/08/17 12:28:55;;;;;;;9.30;7.72;;;21.90;57.10;;;;;;4944987;29;20534;-54
2021/08/17 12:31:27;;;;;;;3.85;3.55;;;21.90;58.00;;;;;;4951142;28;20351;-53
2021/08/17 12:33:57;;;;;;;3.90;3.50;;;22.00;58.00;;;;;;4951097;28;20196;-54
2021/08/17 12:36:48;;;;;;;4.72;4.10;;;21.80;57.30;;;;;;4950133;28;20550;-54
2021/08/17 12:39:24;;;;;;;6.03;3.97;;;21.60;58.50;;;;;;4953550;29;20575;-54
2021/08/17 12:41:51;;;;;;;4.50;4.00;;;21.40;59.30;;;;;;4954116;28;20200;-55
2021/08/17 12:44:22;;;;;;;6.65;3.72;;;21.50;59.90;;;;;;4954792;28;20192;-54
2021/08/17 12:47:04;;;;;;;4.07;3.65;;;21.50;58.50;;;;;;4957130;28;20614;-54
2021/08/17 12:49:44;;;;;;;6.28;3.80;;;21.40;58.80;;;;;;4970361;28;20197;-53
2021/08/17 12:52:33;;;;;;;7.85;3.80;;;21.40;59.10;;;;;;4954180;28;20220;-54